sensor_id;sensor_type;location;lat;lon;timestamp;P1;durP1;ratioP1;P2;durP2;ratioP2
67768;SDS011;54569;52.018;5.584;2022-11-21T00:00:17;33.90;;;19.92;;
67768;SDS011;54569;52.018;5.584;2022-11-21T00:02:43;39.10;;;21.80;;
67768;SDS011;54569;52.018;5.584;2022-11-21T00:05:08;35.85;;;20.63;;
67768;SDS011;54569;52.018;5.584;2022-11-21T00:07:34;37.80;;;21.35;;
67768;SDS011;54569;52.018;5.584;2022-11-21T00:10:00;38.28;;;21.65;;
67768;SDS011;54569;52.018;5.584;2022-11-21T00:12:26;34.60;;;19.98;;
67768;SDS011;54569;52.018;5.584;2022-11-21T00:14:51;35.50;;;19.85;;
67768;SDS011;54569;52.018;5.584;2022-11-21T00:17:17;37.33;;;21.88;;
67768;SDS011;54569;52.018;5.584;2022-11-21T00:19:43;45.10;;;23.27;;
67768;SDS011;54569;52.018;5.584;2022-11-21T00:22:08;39.47;;;22.83;;
67768;SDS011;54569;52.018;5.584;2022-11-21T00:24:34;38.45;;;21.85;;
67768;SDS011;54569;52.018;5.584;2022-11-21T00:27:00;41.25;;;21.80;;
67768;SDS011;54569;52.018;5.584;2022-11-21T00:29:26;39.45;;;22.20;;
67768;SDS011;54569;52.018;5.584;2022-11-21T00:31:52;42.55;;;23.60;;
67768;SDS011;54569;52.018;5.584;2022-11-21T00:34:17;42.30;;;23.45;;
67768;SDS011;54569;52.018;5.584;2022-11-21T00:36:43;38.92;;;21.33;;
67768;SDS011;54569;52.018;5.584;2022-11-21T00:39:09;39.75;;;23.20;;
67768;SDS011;54569;52.018;5.584;2022-11-21T00:41:34;37.83;;;21.13;;
67768;SDS011;54569;52.018;5.584;2022-11-21T00:44:00;35.80;;;22.33;;
67768;SDS011;54569;52.018;5.584;2022-11-21T00:46:26;39.85;;;22.75;;
67768;SDS011;54569;52.018;5.584;2022-11-21T00:48:51;40.75;;;22.73;;
67768;SDS011;54569;52.018;5.584;2022-11-21T00:51:17;33.40;;;19.88;;
67768;SDS011;54569;52.018;5.584;2022-11-21T00:53:42;41.08;;;23.92;;
67768;SDS011;54569;52.018;5.584;2022-11-21T00:56:08;34.97;;;20.67;;
67768;SDS011;54569;52.018;5.584;2022-11-21T00:58:34;35.65;;;20.92;;
67768;SDS011;54569;52.018;5.584;2022-11-21T01:01:03;41.80;;;23.30;;
67768;SDS011;54569;52.018;5.584;2022-11-21T01:03:34;35.85;;;20.45;;
67768;SDS011;54569;52.018;5.584;2022-11-21T01:06:11;41.30;;;22.38;;
67768;SDS011;54569;52.018;5.584;2022-11-21T01:08:38;35.17;;;19.80;;
67768;SDS011;54569;52.018;5.584;2022-11-21T01:11:06;38.78;;;22.65;;
67768;SDS011;54569;52.018;5.584;2022-11-21T01:13:34;37.97;;;21.52;;
67768;SDS011;54569;52.018;5.584;2022-11-21T01:16:06;38.75;;;22.52;;
67768;SDS011;54569;52.018;5.584;2022-11-21T01:18:34;41.15;;;22.88;;
67768;SDS011;54569;52.018;5.584;2022-11-21T01:21:01;43.28;;;23.25;;
67768;SDS011;54569;52.018;5.584;2022-11-21T01:23:31;41.38;;;23.23;;
67768;SDS011;54569;52.018;5.584;2022-11-21T01:26:07;39.58;;;22.45;;
67768;SDS011;54569;52.018;5.584;2022-11-21T01:28:37;38.28;;;21.67;;
67768;SDS011;54569;52.018;5.584;2022-11-21T01:31:06;34.92;;;19.42;;
67768;SDS011;54569;52.018;5.584;2022-11-21T01:33:34;39.03;;;21.83;;
67768;SDS011;54569;52.018;5.584;2022-11-21T01:36:19;37.58;;;20.42;;
67768;SDS011;54569;52.018;5.584;2022-11-21T01:38:47;40.50;;;22.35;;
67768;SDS011;54569;52.018;5.584;2022-11-21T01:41:15;41.30;;;22.60;;
67768;SDS011;54569;52.018;5.584;2022-11-21T01:43:43;42.83;;;22.25;;
67768;SDS011;54569;52.018;5.584;2022-11-21T01:48:47;38.10;;;21.33;;
67768;SDS011;54569;52.018;5.584;2022-11-21T01:52:17;38.28;;;21.35;;
67768;SDS011;54569;52.018;5.584;2022-11-21T01:56:50;33.67;;;19.40;;
67768;SDS011;54569;52.018;5.584;2022-11-21T01:59:38;34.78;;;20.48;;
67768;SDS011;54569;52.018;5.584;2022-11-21T02:02:15;34.75;;;20.17;;
67768;SDS011;54569;52.018;5.584;2022-11-21T02:04:42;32.42;;;19.38;;
67768;SDS011;54569;52.018;5.584;2022-11-21T02:07:09;41.33;;;21.77;;
67768;SDS011;54569;52.018;5.584;2022-11-21T02:09:38;37.50;;;20.02;;
67768;SDS011;54569;52.018;5.584;2022-11-21T02:12:07;39.95;;;21.27;;
67768;SDS011;54569;52.018;5.584;2022-11-21T02:14:42;43.03;;;21.90;;
67768;SDS011;54569;52.018;5.584;2022-11-21T02:17:08;39.00;;;22.17;;
67768;SDS011;54569;52.018;5.584;2022-11-21T02:19:48;38.80;;;20.30;;
67768;SDS011;54569;52.018;5.584;2022-11-21T02:22:37;43.20;;;21.65;;
67768;SDS011;54569;52.018;5.584;2022-11-21T02:25:11;44.17;;;22.33;;
67768;SDS011;54569;52.018;5.584;2022-11-21T02:27:44;37.92;;;20.42;;
67768;SDS011;54569;52.018;5.584;2022-11-21T02:30:13;39.17;;;21.60;;
67768;SDS011;54569;52.018;5.584;2022-11-21T02:32:41;45.05;;;23.67;;
67768;SDS011;54569;52.018;5.584;2022-11-21T02:35:11;43.25;;;23.30;;
67768;SDS011;54569;52.018;5.584;2022-11-21T02:37:39;45.38;;;22.27;;
67768;SDS011;54569;52.018;5.584;2022-11-21T02:40:06;40.97;;;20.95;;
67768;SDS011;54569;52.018;5.584;2022-11-21T02:43:20;41.10;;;21.02;;
67768;SDS011;54569;52.018;5.584;2022-11-21T02:45:40;42.58;;;21.20;;
67768;SDS011;54569;52.018;5.584;2022-11-21T02:48:08;39.90;;;20.88;;
67768;SDS011;54569;52.018;5.584;2022-11-21T02:50:35;37.83;;;19.70;;
67768;SDS011;54569;52.018;5.584;2022-11-21T02:53:05;36.42;;;19.23;;
67768;SDS011;54569;52.018;5.584;2022-11-21T02:55:32;37.75;;;17.75;;
67768;SDS011;54569;52.018;5.584;2022-11-21T02:57:58;41.08;;;19.58;;
67768;SDS011;54569;52.018;5.584;2022-11-21T03:00:23;38.83;;;18.40;;
67768;SDS011;54569;52.018;5.584;2022-11-21T03:02:49;38.72;;;19.38;;
67768;SDS011;54569;52.018;5.584;2022-11-21T03:05:16;38.42;;;19.50;;
67768;SDS011;54569;52.018;5.584;2022-11-21T03:07:43;37.25;;;18.05;;
67768;SDS011;54569;52.018;5.584;2022-11-21T03:10:10;35.13;;;18.00;;
67768;SDS011;54569;52.018;5.584;2022-11-21T03:12:36;37.20;;;18.33;;
67768;SDS011;54569;52.018;5.584;2022-11-21T03:15:03;37.60;;;18.17;;
67768;SDS011;54569;52.018;5.584;2022-11-21T03:17:30;33.67;;;16.92;;
67768;SDS011;54569;52.018;5.584;2022-11-21T03:19:56;38.38;;;17.65;;
67768;SDS011;54569;52.018;5.584;2022-11-21T03:22:21;37.08;;;17.90;;
67768;SDS011;54569;52.018;5.584;2022-11-21T03:24:47;38.67;;;19.27;;
67768;SDS011;54569;52.018;5.584;2022-11-21T03:27:13;36.83;;;18.33;;
67768;SDS011;54569;52.018;5.584;2022-11-21T03:29:38;36.47;;;16.77;;
67768;SDS011;54569;52.018;5.584;2022-11-21T03:32:04;34.35;;;16.17;;
67768;SDS011;54569;52.018;5.584;2022-11-21T03:34:30;52.97;;;17.70;;
67768;SDS011;54569;52.018;5.584;2022-11-21T03:36:55;40.42;;;17.85;;
67768;SDS011;54569;52.018;5.584;2022-11-21T03:39:21;43.15;;;17.02;;
67768;SDS011;54569;52.018;5.584;2022-11-21T03:41:46;47.63;;;17.27;;
67768;SDS011;54569;52.018;5.584;2022-11-21T03:44:12;38.40;;;13.85;;
67768;SDS011;54569;52.018;5.584;2022-11-21T03:46:39;36.20;;;16.80;;
67768;SDS011;54569;52.018;5.584;2022-11-21T03:49:06;65.57;;;17.80;;
67768;SDS011;54569;52.018;5.584;2022-11-21T03:51:32;40.17;;;15.40;;
67768;SDS011;54569;52.018;5.584;2022-11-21T03:53:58;64.15;;;16.83;;
67768;SDS011;54569;52.018;5.584;2022-11-21T03:56:24;56.92;;;17.50;;
67768;SDS011;54569;52.018;5.584;2022-11-21T03:58:50;57.33;;;16.65;;
67768;SDS011;54569;52.018;5.584;2022-11-21T04:01:16;93.15;;;17.35;;
67768;SDS011;54569;52.018;5.584;2022-11-21T04:03:42;110.05;;;19.23;;
67768;SDS011;54569;52.018;5.584;2022-11-21T04:06:09;104.05;;;17.80;;
67768;SDS011;54569;52.018;5.584;2022-11-21T04:08:36;83.75;;;18.50;;
67768;SDS011;54569;52.018;5.584;2022-11-21T04:11:02;74.30;;;16.30;;
67768;SDS011;54569;52.018;5.584;2022-11-21T04:13:28;140.20;;;18.80;;
67768;SDS011;54569;52.018;5.584;2022-11-21T04:15:54;82.03;;;15.95;;
67768;SDS011;54569;52.018;5.584;2022-11-21T04:18:20;81.10;;;17.08;;
67768;SDS011;54569;52.018;5.584;2022-11-21T04:20:46;83.90;;;18.70;;
67768;SDS011;54569;52.018;5.584;2022-11-21T04:23:11;84.68;;;16.75;;
67768;SDS011;54569;52.018;5.584;2022-11-21T04:25:38;65.95;;;16.45;;
67768;SDS011;54569;52.018;5.584;2022-11-21T04:28:04;42.00;;;15.35;;
67768;SDS011;54569;52.018;5.584;2022-11-21T04:30:31;74.60;;;18.15;;
67768;SDS011;54569;52.018;5.584;2022-11-21T04:32:58;94.25;;;17.60;;
67768;SDS011;54569;52.018;5.584;2022-11-21T04:35:24;81.15;;;18.30;;
67768;SDS011;54569;52.018;5.584;2022-11-21T04:37:50;53.47;;;16.92;;
67768;SDS011;54569;52.018;5.584;2022-11-21T04:40:16;50.85;;;17.30;;
67768;SDS011;54569;52.018;5.584;2022-11-21T04:42:45;52.95;;;18.25;;
67768;SDS011;54569;52.018;5.584;2022-11-21T04:45:12;51.08;;;17.60;;
67768;SDS011;54569;52.018;5.584;2022-11-21T04:47:39;61.15;;;16.98;;
67768;SDS011;54569;52.018;5.584;2022-11-21T04:50:06;60.53;;;18.27;;
67768;SDS011;54569;52.018;5.584;2022-11-21T04:52:33;64.15;;;18.15;;
67768;SDS011;54569;52.018;5.584;2022-11-21T04:54:59;65.40;;;18.58;;
67768;SDS011;54569;52.018;5.584;2022-11-21T04:57:28;48.53;;;17.25;;
67768;SDS011;54569;52.018;5.584;2022-11-21T04:59:54;49.30;;;16.77;;
67768;SDS011;54569;52.018;5.584;2022-11-21T05:02:20;41.40;;;17.05;;
67768;SDS011;54569;52.018;5.584;2022-11-21T05:04:46;59.00;;;17.85;;
67768;SDS011;54569;52.018;5.584;2022-11-21T05:07:12;77.05;;;18.70;;
67768;SDS011;54569;52.018;5.584;2022-11-21T05:09:38;43.00;;;15.48;;
67768;SDS011;54569;52.018;5.584;2022-11-21T05:12:03;65.53;;;18.08;;
67768;SDS011;54569;52.018;5.584;2022-11-21T05:14:49;55.45;;;18.17;;
67768;SDS011;54569;52.018;5.584;2022-11-21T05:17:15;101.07;;;23.05;;
67768;SDS011;54569;52.018;5.584;2022-11-21T05:19:40;132.30;;;21.55;;
67768;SDS011;54569;52.018;5.584;2022-11-21T05:22:06;78.78;;;18.02;;
67768;SDS011;54569;52.018;5.584;2022-11-21T05:24:31;100.57;;;20.08;;
67768;SDS011;54569;52.018;5.584;2022-11-21T05:26:58;80.40;;;21.27;;
67768;SDS011;54569;52.018;5.584;2022-11-21T05:29:24;61.97;;;16.77;;
67768;SDS011;54569;52.018;5.584;2022-11-21T05:31:49;67.35;;;20.15;;
67768;SDS011;54569;52.018;5.584;2022-11-21T05:34:15;105.97;;;20.95;;
67768;SDS011;54569;52.018;5.584;2022-11-21T05:36:40;46.10;;;18.75;;
67768;SDS011;54569;52.018;5.584;2022-11-21T05:39:06;63.97;;;18.85;;
67768;SDS011;54569;52.018;5.584;2022-11-21T05:41:32;71.85;;;19.88;;
67768;SDS011;54569;52.018;5.584;2022-11-21T05:43:57;77.05;;;18.08;;
67768;SDS011;54569;52.018;5.584;2022-11-21T05:46:23;63.42;;;18.80;;
67768;SDS011;54569;52.018;5.584;2022-11-21T05:48:50;66.97;;;20.27;;
67768;SDS011;54569;52.018;5.584;2022-11-21T05:51:18;58.92;;;19.73;;
67768;SDS011;54569;52.018;5.584;2022-11-21T05:53:44;49.88;;;17.52;;
67768;SDS011;54569;52.018;5.584;2022-11-21T05:56:12;56.83;;;18.33;;
67768;SDS011;54569;52.018;5.584;2022-11-21T05:58:39;66.38;;;18.02;;
67768;SDS011;54569;52.018;5.584;2022-11-21T06:01:06;65.53;;;17.63;;
67768;SDS011;54569;52.018;5.584;2022-11-21T06:03:33;72.90;;;18.30;;
67768;SDS011;54569;52.018;5.584;2022-11-21T06:06:05;46.92;;;18.20;;
67768;SDS011;54569;52.018;5.584;2022-11-21T06:08:42;51.42;;;18.73;;
67768;SDS011;54569;52.018;5.584;2022-11-21T06:11:10;60.10;;;19.63;;
67768;SDS011;54569;52.018;5.584;2022-11-21T06:13:36;62.80;;;20.33;;
67768;SDS011;54569;52.018;5.584;2022-11-21T06:16:04;85.35;;;21.48;;
67768;SDS011;54569;52.018;5.584;2022-11-21T06:18:37;81.78;;;19.48;;
67768;SDS011;54569;52.018;5.584;2022-11-21T06:21:05;61.75;;;19.38;;
67768;SDS011;54569;52.018;5.584;2022-11-21T06:23:40;84.22;;;19.98;;
67768;SDS011;54569;52.018;5.584;2022-11-21T06:26:06;76.80;;;21.00;;
67768;SDS011;54569;52.018;5.584;2022-11-21T06:28:36;67.15;;;20.75;;
67768;SDS011;54569;52.018;5.584;2022-11-21T06:31:03;58.08;;;19.80;;
67768;SDS011;54569;52.018;5.584;2022-11-21T06:33:36;85.65;;;20.75;;
67768;SDS011;54569;52.018;5.584;2022-11-21T06:36:03;92.63;;;20.45;;
67768;SDS011;54569;52.018;5.584;2022-11-21T06:38:31;69.00;;;21.90;;
67768;SDS011;54569;52.018;5.584;2022-11-21T06:40:57;85.82;;;21.15;;
67768;SDS011;54569;52.018;5.584;2022-11-21T06:43:22;63.50;;;21.90;;
67768;SDS011;54569;52.018;5.584;2022-11-21T06:45:48;83.55;;;21.90;;
67768;SDS011;54569;52.018;5.584;2022-11-21T06:48:14;84.72;;;20.48;;
67768;SDS011;54569;52.018;5.584;2022-11-21T06:50:39;97.57;;;21.33;;
67768;SDS011;54569;52.018;5.584;2022-11-21T06:53:05;64.13;;;21.05;;
67768;SDS011;54569;52.018;5.584;2022-11-21T06:55:31;72.32;;;20.75;;
67768;SDS011;54569;52.018;5.584;2022-11-21T06:57:57;67.43;;;19.00;;
67768;SDS011;54569;52.018;5.584;2022-11-21T07:00:23;59.50;;;21.48;;
67768;SDS011;54569;52.018;5.584;2022-11-21T07:02:50;79.72;;;22.48;;
67768;SDS011;54569;52.018;5.584;2022-11-21T07:05:16;66.25;;;19.92;;
67768;SDS011;54569;52.018;5.584;2022-11-21T07:07:41;74.00;;;23.13;;
67768;SDS011;54569;52.018;5.584;2022-11-21T07:10:07;62.67;;;20.83;;
67768;SDS011;54569;52.018;5.584;2022-11-21T07:12:33;58.22;;;23.17;;
67768;SDS011;54569;52.018;5.584;2022-11-21T07:17:43;54.83;;;20.17;;
67768;SDS011;54569;52.018;5.584;2022-11-21T07:20:09;45.15;;;19.83;;
67768;SDS011;54569;52.018;5.584;2022-11-21T07:22:35;50.53;;;19.67;;
67768;SDS011;54569;52.018;5.584;2022-11-21T07:25:01;45.28;;;19.85;;
67768;SDS011;54569;52.018;5.584;2022-11-21T07:27:27;48.78;;;21.20;;
67768;SDS011;54569;52.018;5.584;2022-11-21T07:29:53;45.38;;;19.52;;
67768;SDS011;54569;52.018;5.584;2022-11-21T07:32:21;40.83;;;20.35;;
67768;SDS011;54569;52.018;5.584;2022-11-21T07:34:48;46.80;;;18.77;;
67768;SDS011;54569;52.018;5.584;2022-11-21T07:37:13;40.65;;;19.13;;
67768;SDS011;54569;52.018;5.584;2022-11-21T07:39:39;39.17;;;18.35;;
67768;SDS011;54569;52.018;5.584;2022-11-21T07:42:05;40.13;;;18.52;;
67768;SDS011;54569;52.018;5.584;2022-11-21T07:44:30;46.45;;;19.60;;
67768;SDS011;54569;52.018;5.584;2022-11-21T07:46:56;44.00;;;20.17;;
67768;SDS011;54569;52.018;5.584;2022-11-21T07:49:21;46.80;;;20.50;;
67768;SDS011;54569;52.018;5.584;2022-11-21T07:51:47;42.70;;;19.00;;
67768;SDS011;54569;52.018;5.584;2022-11-21T07:54:13;48.22;;;20.88;;
67768;SDS011;54569;52.018;5.584;2022-11-21T07:56:38;44.63;;;18.88;;
67768;SDS011;54569;52.018;5.584;2022-11-21T07:59:04;37.55;;;18.33;;
67768;SDS011;54569;52.018;5.584;2022-11-21T08:01:30;43.63;;;17.55;;
67768;SDS011;54569;52.018;5.584;2022-11-21T08:03:56;37.33;;;17.52;;
67768;SDS011;54569;52.018;5.584;2022-11-21T08:06:21;40.33;;;16.30;;
67768;SDS011;54569;52.018;5.584;2022-11-21T08:08:50;36.65;;;16.55;;
67768;SDS011;54569;52.018;5.584;2022-11-21T08:11:17;38.78;;;17.20;;
67768;SDS011;54569;52.018;5.584;2022-11-21T08:13:43;36.80;;;17.13;;
67768;SDS011;54569;52.018;5.584;2022-11-21T08:16:09;38.10;;;15.98;;
67768;SDS011;54569;52.018;5.584;2022-11-21T08:18:34;43.33;;;18.00;;
67768;SDS011;54569;52.018;5.584;2022-11-21T08:21:01;40.92;;;17.63;;
67768;SDS011;54569;52.018;5.584;2022-11-21T08:23:27;41.50;;;21.05;;
67768;SDS011;54569;52.018;5.584;2022-11-21T08:25:53;39.15;;;16.98;;
67768;SDS011;54569;52.018;5.584;2022-11-21T08:28:18;40.33;;;17.58;;
67768;SDS011;54569;52.018;5.584;2022-11-21T08:30:44;45.78;;;19.42;;
67768;SDS011;54569;52.018;5.584;2022-11-21T08:33:09;42.55;;;18.30;;
67768;SDS011;54569;52.018;5.584;2022-11-21T08:35:35;51.95;;;18.60;;
67768;SDS011;54569;52.018;5.584;2022-11-21T08:38:02;47.03;;;20.48;;
67768;SDS011;54569;52.018;5.584;2022-11-21T08:40:28;54.55;;;19.55;;
67768;SDS011;54569;52.018;5.584;2022-11-21T08:42:59;67.10;;;21.10;;
67768;SDS011;54569;52.018;5.584;2022-11-21T08:45:29;67.25;;;20.17;;
67768;SDS011;54569;52.018;5.584;2022-11-21T08:47:56;74.05;;;21.45;;
67768;SDS011;54569;52.018;5.584;2022-11-21T08:50:22;62.85;;;19.30;;
67768;SDS011;54569;52.018;5.584;2022-11-21T08:52:48;83.25;;;19.80;;
67768;SDS011;54569;52.018;5.584;2022-11-21T08:55:14;79.07;;;20.42;;
67768;SDS011;54569;52.018;5.584;2022-11-21T08:57:40;77.18;;;20.73;;
67768;SDS011;54569;52.018;5.584;2022-11-21T09:00:07;59.65;;;19.95;;
67768;SDS011;54569;52.018;5.584;2022-11-21T09:02:36;74.30;;;20.25;;
67768;SDS011;54569;52.018;5.584;2022-11-21T09:05:03;49.83;;;18.67;;
67768;SDS011;54569;52.018;5.584;2022-11-21T09:07:29;46.15;;;19.33;;
67768;SDS011;54569;52.018;5.584;2022-11-21T09:09:55;49.35;;;19.20;;
67768;SDS011;54569;52.018;5.584;2022-11-21T09:12:20;60.78;;;19.52;;
67768;SDS011;54569;52.018;5.584;2022-11-21T09:14:46;52.75;;;17.77;;
67768;SDS011;54569;52.018;5.584;2022-11-21T09:17:30;32.38;;;15.98;;
67768;SDS011;54569;52.018;5.584;2022-11-21T09:20:15;33.10;;;16.00;;
67768;SDS011;54569;52.018;5.584;2022-11-21T09:22:40;32.28;;;15.60;;
67768;SDS011;54569;52.018;5.584;2022-11-21T09:25:06;40.40;;;16.15;;
67768;SDS011;54569;52.018;5.584;2022-11-21T09:27:32;35.97;;;16.42;;
67768;SDS011;54569;52.018;5.584;2022-11-21T09:29:58;34.95;;;15.80;;
67768;SDS011;54569;52.018;5.584;2022-11-21T09:32:23;33.17;;;15.82;;
67768;SDS011;54569;52.018;5.584;2022-11-21T09:34:49;32.78;;;15.77;;
67768;SDS011;54569;52.018;5.584;2022-11-21T09:37:15;34.38;;;15.80;;
67768;SDS011;54569;52.018;5.584;2022-11-21T09:39:41;34.88;;;15.48;;
67768;SDS011;54569;52.018;5.584;2022-11-21T09:42:32;36.75;;;17.65;;
67768;SDS011;54569;52.018;5.584;2022-11-21T09:47:44;33.47;;;15.98;;
67768;SDS011;54569;52.018;5.584;2022-11-21T09:52:47;40.05;;;18.85;;
67768;SDS011;54569;52.018;5.584;2022-11-21T09:56:06;41.45;;;19.10;;
67768;SDS011;54569;52.018;5.584;2022-11-21T10:01:00;38.55;;;18.23;;
67768;SDS011;54569;52.018;5.584;2022-11-21T10:03:28;46.47;;;19.88;;
67768;SDS011;54569;52.018;5.584;2022-11-21T10:06:03;48.35;;;18.25;;
67768;SDS011;54569;52.018;5.584;2022-11-21T10:11:46;50.70;;;18.92;;
67768;SDS011;54569;52.018;5.584;2022-11-21T10:31:23;50.97;;;19.52;;
67768;SDS011;54569;52.018;5.584;2022-11-21T10:33:55;47.03;;;21.05;;
67768;SDS011;54569;52.018;5.584;2022-11-21T10:38:47;42.83;;;19.40;;
67768;SDS011;54569;52.018;5.584;2022-11-21T10:41:17;50.53;;;20.95;;
67768;SDS011;54569;52.018;5.584;2022-11-21T10:44:03;51.80;;;19.77;;
67768;SDS011;54569;52.018;5.584;2022-11-21T10:47:00;51.88;;;20.77;;
67768;SDS011;54569;52.018;5.584;2022-11-21T10:49:27;53.00;;;20.33;;
67768;SDS011;54569;52.018;5.584;2022-11-21T10:52:04;49.90;;;21.52;;
67768;SDS011;54569;52.018;5.584;2022-11-21T10:54:55;45.05;;;20.10;;
67768;SDS011;54569;52.018;5.584;2022-11-21T10:57:26;44.63;;;20.42;;
67768;SDS011;54569;52.018;5.584;2022-11-21T10:59:57;45.45;;;19.60;;
67768;SDS011;54569;52.018;5.584;2022-11-21T11:02:25;46.17;;;20.40;;
67768;SDS011;54569;52.018;5.584;2022-11-21T11:07:59;37.88;;;21.27;;
67768;SDS011;54569;52.018;5.584;2022-11-21T11:10:42;40.28;;;19.27;;
67768;SDS011;54569;52.018;5.584;2022-11-21T11:13:19;44.10;;;22.98;;
67768;SDS011;54569;52.018;5.584;2022-11-21T11:15:53;42.78;;;21.40;;
67768;SDS011;54569;52.018;5.584;2022-11-21T11:18:35;40.60;;;19.85;;
67768;SDS011;54569;52.018;5.584;2022-11-21T11:21:10;39.17;;;19.20;;
67768;SDS011;54569;52.018;5.584;2022-11-21T11:23:39;44.60;;;19.85;;
67768;SDS011;54569;52.018;5.584;2022-11-21T11:26:13;38.47;;;20.02;;
67768;SDS011;54569;52.018;5.584;2022-11-21T11:28:42;35.63;;;19.70;;
67768;SDS011;54569;52.018;5.584;2022-11-21T11:31:07;31.80;;;18.48;;
67768;SDS011;54569;52.018;5.584;2022-11-21T11:33:41;33.10;;;19.75;;
67768;SDS011;54569;52.018;5.584;2022-11-21T11:36:22;30.73;;;18.63;;
67768;SDS011;54569;52.018;5.584;2022-11-21T11:39:03;33.28;;;18.50;;
67768;SDS011;54569;52.018;5.584;2022-11-21T11:50:40;29.23;;;16.27;;
67768;SDS011;54569;52.018;5.584;2022-11-21T11:53:21;27.65;;;16.35;;
67768;SDS011;54569;52.018;5.584;2022-11-21T11:56:31;30.38;;;16.85;;
67768;SDS011;54569;52.018;5.584;2022-11-21T11:59:02;27.25;;;16.38;;
67768;SDS011;54569;52.018;5.584;2022-11-21T12:04:10;28.42;;;17.25;;
67768;SDS011;54569;52.018;5.584;2022-11-21T12:07:14;27.20;;;17.05;;
67768;SDS011;54569;52.018;5.584;2022-11-21T12:12:17;23.40;;;16.48;;
67768;SDS011;54569;52.018;5.584;2022-11-21T12:18:20;24.52;;;15.30;;
67768;SDS011;54569;52.018;5.584;2022-11-21T12:23:49;19.70;;;14.45;;
67768;SDS011;54569;52.018;5.584;2022-11-21T12:34:00;18.20;;;11.38;;
67768;SDS011;54569;52.018;5.584;2022-11-21T12:36:48;15.93;;;11.00;;
67768;SDS011;54569;52.018;5.584;2022-11-21T12:45:38;11.70;;;9.10;;
67768;SDS011;54569;52.018;5.584;2022-11-21T12:52:13;10.00;;;5.97;;
67768;SDS011;54569;52.018;5.584;2022-11-21T13:03:59;10.65;;;6.28;;
67768;SDS011;54569;52.018;5.584;2022-11-21T13:06:26;8.23;;;6.88;;
67768;SDS011;54569;52.018;5.584;2022-11-21T13:08:53;10.68;;;7.55;;
67768;SDS011;54569;52.018;5.584;2022-11-21T13:19:59;9.07;;;6.80;;
67768;SDS011;54569;52.018;5.584;2022-11-21T13:30:46;12.25;;;7.35;;
67768;SDS011;54569;52.018;5.584;2022-11-21T13:33:49;9.90;;;7.13;;
67768;SDS011;54569;52.018;5.584;2022-11-21T13:36:11;10.32;;;7.45;;
67768;SDS011;54569;52.018;5.584;2022-11-21T13:46:56;15.27;;;7.65;;
67768;SDS011;54569;52.018;5.584;2022-11-21T13:49:32;9.65;;;7.30;;
67768;SDS011;54569;52.018;5.584;2022-11-21T13:55:41;13.13;;;7.93;;
67768;SDS011;54569;52.018;5.584;2022-11-21T14:06:42;9.77;;;7.68;;
67768;SDS011;54569;52.018;5.584;2022-11-21T14:14:48;9.02;;;5.88;;
67768;SDS011;54569;52.018;5.584;2022-11-21T14:19:56;10.35;;;6.35;;
67768;SDS011;54569;52.018;5.584;2022-11-21T14:22:33;10.88;;;6.32;;
67768;SDS011;54569;52.018;5.584;2022-11-21T14:25:07;15.35;;;6.32;;
67768;SDS011;54569;52.018;5.584;2022-11-21T14:27:38;9.63;;;5.82;;
67768;SDS011;54569;52.018;5.584;2022-11-21T14:35:50;13.32;;;6.85;;
67768;SDS011;54569;52.018;5.584;2022-11-21T14:38:21;11.80;;;7.00;;
67768;SDS011;54569;52.018;5.584;2022-11-21T14:40:48;11.35;;;6.28;;
67768;SDS011;54569;52.018;5.584;2022-11-21T14:43:30;11.13;;;6.63;;
67768;SDS011;54569;52.018;5.584;2022-11-21T14:45:57;14.68;;;7.03;;
67768;SDS011;54569;52.018;5.584;2022-11-21T14:48:26;9.90;;;7.30;;
67768;SDS011;54569;52.018;5.584;2022-11-21T14:50:54;11.57;;;7.20;;
67768;SDS011;54569;52.018;5.584;2022-11-21T14:53:22;13.27;;;7.40;;
67768;SDS011;54569;52.018;5.584;2022-11-21T14:55:49;8.68;;;6.45;;
67768;SDS011;54569;52.018;5.584;2022-11-21T14:58:24;9.60;;;6.32;;
67768;SDS011;54569;52.018;5.584;2022-11-21T15:01:03;11.10;;;6.22;;
67768;SDS011;54569;52.018;5.584;2022-11-21T15:03:30;8.25;;;5.90;;
67768;SDS011;54569;52.018;5.584;2022-11-21T15:05:57;7.68;;;5.93;;
67768;SDS011;54569;52.018;5.584;2022-11-21T15:08:28;10.20;;;5.82;;
67768;SDS011;54569;52.018;5.584;2022-11-21T15:10:59;11.00;;;5.72;;
67768;SDS011;54569;52.018;5.584;2022-11-21T15:13:26;13.45;;;6.00;;
67768;SDS011;54569;52.018;5.584;2022-11-21T15:15:58;10.20;;;5.80;;
67768;SDS011;54569;52.018;5.584;2022-11-21T15:18:25;8.18;;;5.80;;
67768;SDS011;54569;52.018;5.584;2022-11-21T15:20:57;10.38;;;6.25;;
67768;SDS011;54569;52.018;5.584;2022-11-21T15:23:35;9.27;;;6.30;;
67768;SDS011;54569;52.018;5.584;2022-11-21T15:26:04;9.50;;;5.93;;
67768;SDS011;54569;52.018;5.584;2022-11-21T15:28:30;9.35;;;5.55;;
67768;SDS011;54569;52.018;5.584;2022-11-21T15:36:18;10.13;;;5.90;;
67768;SDS011;54569;52.018;5.584;2022-11-21T15:46:27;13.52;;;6.97;;
67768;SDS011;54569;52.018;5.584;2022-11-21T15:49:07;14.15;;;6.95;;
67768;SDS011;54569;52.018;5.584;2022-11-21T15:54:02;12.13;;;6.70;;
67768;SDS011;54569;52.018;5.584;2022-11-21T15:56:28;17.67;;;8.52;;
67768;SDS011;54569;52.018;5.584;2022-11-21T15:58:54;14.30;;;7.07;;
67768;SDS011;54569;52.018;5.584;2022-11-21T16:01:21;10.70;;;7.97;;
67768;SDS011;54569;52.018;5.584;2022-11-21T16:03:51;13.85;;;7.30;;
67768;SDS011;54569;52.018;5.584;2022-11-21T16:06:18;16.23;;;7.90;;
67768;SDS011;54569;52.018;5.584;2022-11-21T16:08:44;14.15;;;7.40;;
67768;SDS011;54569;52.018;5.584;2022-11-21T16:11:17;14.00;;;7.55;;
67768;SDS011;54569;52.018;5.584;2022-11-21T16:13:52;8.95;;;6.70;;
67768;SDS011;54569;52.018;5.584;2022-11-21T16:16:20;10.68;;;7.50;;
67768;SDS011;54569;52.018;5.584;2022-11-21T16:18:47;12.93;;;7.57;;
67768;SDS011;54569;52.018;5.584;2022-11-21T16:21:14;13.43;;;7.75;;
67768;SDS011;54569;52.018;5.584;2022-11-21T16:23:40;13.20;;;7.07;;
67768;SDS011;54569;52.018;5.584;2022-11-21T16:26:06;11.15;;;7.25;;
67768;SDS011;54569;52.018;5.584;2022-11-21T16:28:33;20.33;;;7.05;;
67768;SDS011;54569;52.018;5.584;2022-11-21T16:31:00;11.30;;;6.72;;
67768;SDS011;54569;52.018;5.584;2022-11-21T16:33:27;10.27;;;7.18;;
67768;SDS011;54569;52.018;5.584;2022-11-21T16:35:53;8.48;;;6.53;;
67768;SDS011;54569;52.018;5.584;2022-11-21T16:38:21;11.98;;;6.35;;
67768;SDS011;54569;52.018;5.584;2022-11-21T16:40:55;11.38;;;6.47;;
67768;SDS011;54569;52.018;5.584;2022-11-21T16:43:22;9.00;;;5.78;;
67768;SDS011;54569;52.018;5.584;2022-11-21T16:45:48;9.88;;;6.18;;
67768;SDS011;54569;52.018;5.584;2022-11-21T16:48:15;11.07;;;6.30;;
67768;SDS011;54569;52.018;5.584;2022-11-21T16:50:40;9.85;;;5.97;;
67768;SDS011;54569;52.018;5.584;2022-11-21T16:53:06;10.35;;;5.97;;
67768;SDS011;54569;52.018;5.584;2022-11-21T16:55:32;12.20;;;5.85;;
67768;SDS011;54569;52.018;5.584;2022-11-21T16:57:57;7.35;;;5.70;;
67768;SDS011;54569;52.018;5.584;2022-11-21T17:00:24;10.13;;;5.57;;
67768;SDS011;54569;52.018;5.584;2022-11-21T17:02:50;8.80;;;5.35;;
67768;SDS011;54569;52.018;5.584;2022-11-21T17:05:16;12.63;;;6.10;;
67768;SDS011;54569;52.018;5.584;2022-11-21T17:07:42;10.13;;;5.43;;
67768;SDS011;54569;52.018;5.584;2022-11-21T17:10:08;10.05;;;5.75;;
67768;SDS011;54569;52.018;5.584;2022-11-21T17:12:38;11.85;;;5.68;;